Aérodrome :
LOGIN :

S'inscrire | Disclaimer

   EN    FR    IT 

 










Légende :    VFR   VFR Marginal   IFR   IFR Intensif   IFR Très Intensif
Visi : 
Plafond : 
>= 8 km
>= 3000ft
5 à 8 km
1000 à 3000 ft
1500m à 5 km
500 à 1000 ft
800 à 1500m
200 à 500 ft
< 800m
< 200 ft
Symboles :   Orages  Brouillard  Fortes neiges  Fortes précipitations  Vent > 20 kt
SIGMETs :   Divers  Orages  Givrage  Turbulence  Onde Orograph.  Cendres Volcan.






- Altitude de l'aérodrome : 0 ft


ENQC - Troll C Platform

DERNIER METAR :
  • 142120Z AUTO 04010KT 9999NDV OVC087/// 08/M01 Q1013 W///S3

METARs EXPIRÉS :
  • 142050Z AUTO 04010KT 9999NDV FEW057/// BKN087/// BKN100/// 08/00 Q1013 W///S3
  • 142020Z AUTO 04011KT 9999NDV FEW078/// BKN100/// 08/M01 Q1012 W///S3
  • 141950Z AUTO 02009KT 9999NDV FEW077/// BKN100/// 08/M02 Q1012 W///S3
  • 141920Z AUTO 03011KT 9999NDV SCT075/// BKN089/// BKN100/// 07/M01 Q1011 W///S3
  • 141850Z AUTO 02009KT 9999NDV SCT075/// BKN084/// BKN130/// 08/M01 Q1011 W///S3
  • 141820Z AUTO 03010KT 9999NDV FEW083/// SCT110/// BKN130/// 07/M01 Q1010 W///S3

TAF N/A



MET'MAP, la Météo Aéronautique d'un coup d'oeil ! - Copyright ORBIFLY Décembre 2007 - Disclaimer

ORBIFLY MET'MAP TEAM :

Programmation & Développement : Alexandra Zaïnal
Conception & Développement : Baudouin d'Aumeries
Co-Programmation & Développement : Marc-Olivier Méhu
Soutien technique & logistique : Manuel Goepfert

Contact : metmap@orbifly.com




SOURCES & CREDITS :

   NOAA